Terminal Aerodrome Forecast
Issued by NWS Charleston, WV

Current Version | Previous Version | Text Only | Print | Product List | Glossary Off
Versions: 1 2 3 4 5 6 7 8 9 10 11 12 13 14 15 16 17 18 19 20 21 22 23 24 25

000
FTUS41 KRLX 231242 AAA
TAFHTS
TAF AMD
KHTS 231242Z 2313/2412 34003KT P6SM SCT002
     FM231400 01004KT P6SM SCT250
     FM231600 02004KT P6SM SCT015
     FM231700 02004KT P6SM SCT025
     FM231900 02005KT P6SM SCT035
     FM240000 02005KT P6SM FEW250=

USA.gov is the U.S. government's official web portal to all federal, state and local government web resources and services.